Station: Hohenfels, ICAO: ETIH, Synop: Synop: 10775,
Koordinaten: 4913'00''N 01150'00''E, Hoehe: 442m, Entfernung: 33.86km
2018/02/22 06:56
ETIH 220656Z AUTO 03004KT 9999 BKN110 M05/M07 A3005 RMK AO2 SLP209 T10521066 $


Station: HOHENFELS (USAF), ICAO: EDIH, Synop: Synop: 10775,
Koordinaten: 49 13 N 011 49 E, Hoehe: 442m, Entfernung: 34.63km


Station: GAERMERSDORF, ICAO: EDZH, Synop: ,
Koordinaten: 49 25 N 011 54 E, Hoehe: 419m, Entfernung: 51.28km


Station: Ingolstadt, ICAO: ETSI, Synop: Synop: 10860,
Koordinaten: 4843'00''N 01132'00''E, Hoehe: 367m, Entfernung: 52.18km
2018/02/22 07:20
ETSI 220720Z 07013KT 9999 BKN080 M04/M08 Q1016 BLU BLU TEMPO BLU+


Station: Kuemmersruck, ICAO: ETGK, Synop: Synop: 10771,
Koordinaten: 4926'00''N 01154'00''E, Hoehe: 419m, Entfernung: 53.04km


Station: Neuburg / Donau, ICAO: ETSN, Synop: Synop: 10853,
Koordinaten: 4843'00''N 01113'00''E, Hoehe: 380m, Entfernung: 72.54km
2018/02/22 07:20
ETSN 220720Z 04009KT 9999 FEW075 BKN095 M04/M08 Q1016 BLU BLU TEMPO WHT


mehr Wetter
WetterInfo - adds.pl 2.6.003 DL3EL © 2004-2017 [202657]